Time;durP1;ratioP1;P1;durP2;ratioP2;P2;SDS_P1;SDS_P2;PMS_P1;PMS_P2;Temp;Humidity;BMP_temperature;BMP_pressure;BME280_temperature;BME280_humidity;BME280_pressure;Samples;Min_cycle;Max_cycle;Signal;HPM_P1;HPM_P2
2023/05/19 00:01:13;;;;;;;5.92;2.55;;;;;;;4.69;68.18;101036.45;1732020;80;20179;-62
2023/05/19 00:03:51;;;;;;;3.67;1.80;;;;;;;4.64;68.14;101036.89;1727192;80;21667;-61
2023/05/19 00:06:19;;;;;;;3.58;1.65;;;;;;;4.59;68.14;101046.38;1726319;80;20969;-62
2023/05/19 00:08:49;;;;;;;3.92;2.22;;;;;;;4.56;68.29;101041.22;1725281;81;21537;-62
2023/05/19 00:11:15;;;;;;;4.20;1.70;;;;;;;4.53;68.36;101043.81;1729501;80;21010;-62
2023/05/19 00:13:47;;;;;;;3.20;1.60;;;;;;;4.53;68.56;101046.84;1734165;80;21697;-62
2023/05/19 00:16:14;;;;;;;3.92;1.60;;;;;;;4.54;68.65;101048.14;1704063;81;21637;-61
2023/05/19 00:18:40;;;;;;;2.08;1.35;;;;;;;4.51;68.62;101052.03;1706843;81;21141;-61
2023/05/19 00:21:07;;;;;;;5.47;1.63;;;;;;;4.50;68.64;101048.99;1697269;82;20963;-61
2023/05/19 00:23:33;;;;;;;3.02;1.70;;;;;;;4.48;68.74;101053.30;1726265;82;21045;-63
2023/05/19 00:26:00;;;;;;;5.00;1.67;;;;;;;4.47;68.75;101054.17;1723443;82;21047;-63
2023/05/19 00:28:26;;;;;;;2.58;1.57;;;;;;;4.49;69.04;101057.63;1727276;80;20957;-61
2023/05/19 00:30:53;;;;;;;4.05;2.02;;;;;;;4.48;69.05;101055.88;1691448;83;21003;-62
2023/05/19 00:33:19;;;;;;;4.55;1.70;;;;;;;4.49;69.11;101056.34;1685408;83;21031;-63
2023/05/19 00:35:45;;;;;;;2.92;1.92;;;;;;;4.47;69.10;101055.03;1728281;82;21668;-63
2023/05/19 00:38:11;;;;;;;2.95;1.42;;;;;;;4.47;69.22;101060.64;1733471;82;21516;-62
2023/05/19 00:40:38;;;;;;;2.20;1.35;;;;;;;4.46;69.31;101055.05;1723167;81;20933;-63
2023/05/19 00:43:07;;;;;;;4.17;1.70;;;;;;;4.46;69.41;101056.34;1724921;82;21099;-62
2023/05/19 00:45:34;;;;;;;2.55;1.45;;;;;;;4.46;69.54;101057.63;1730877;81;21079;-62
2023/05/19 00:48:00;;;;;;;2.45;1.50;;;;;;;4.47;69.54;101059.34;1731594;81;21463;-62
2023/05/19 00:50:27;;;;;;;3.60;1.30;;;;;;;4.45;69.66;101058.48;1725861;81;20956;-62
2023/05/19 00:52:55;;;;;;;1.67;1.10;;;;;;;4.44;69.70;101059.35;1731330;80;21506;-62
2023/05/19 00:55:24;;;;;;;4.35;1.75;;;;;;;4.45;69.92;101059.37;1726221;80;21501;-63
2023/05/19 00:57:55;;;;;;;2.47;1.70;;;;;;;4.48;69.98;101063.64;1728272;82;20997;-63
2023/05/19 01:00:22;;;;;;;4.15;1.70;;;;;;;4.46;69.72;101060.22;1723803;81;20976;-62
2023/05/19 01:02:49;;;;;;;2.50;1.42;;;;;;;4.40;69.60;101061.09;1722206;81;20953;-61
2023/05/19 01:05:16;;;;;;;2.50;1.67;;;;;;;4.37;69.72;101062.79;1730998;80;20991;-61
2023/05/19 01:07:42;;;;;;;3.12;1.40;;;;;;;4.30;69.85;101055.91;1722895;81;21259;-62
2023/05/19 01:10:14;;;;;;;3.30;1.60;;;;;;;4.24;69.93;101057.63;1728198;80;20966;-63
2023/05/19 01:12:39;;;;;;;5.75;1.90;;;;;;;4.21;70.05;101052.90;1720785;81;22052;-63
2023/05/19 01:15:06;;;;;;;4.40;1.67;;;;;;;4.23;70.39;101052.04;1724254;80;20994;-62
2023/05/19 01:17:37;;;;;;;;;;;;;;;4.29;70.53;101056.78;1720573;80;21012;-63
2023/05/19 01:20:13;;;;;;;5.15;1.30;;;;;;;4.33;70.75;101058.50;1697784;82;20101;-62
2023/05/19 01:23:07;;;;;;;3.92;1.82;;;;;;;4.37;70.73;101057.62;1699008;82;21624;-62
2023/05/19 01:26:12;;;;;;;3.17;1.27;;;;;;;4.43;70.97;101060.22;1699028;83;20981;-62
2023/05/19 01:28:51;;;;;;;4.12;1.50;;;;;;;4.49;70.84;101060.22;1697684;82;21450;-61
2023/05/19 01:31:22;;;;;;;2.17;1.20;;;;;;;4.49;70.79;101057.63;1696308;82;20968;-62
2023/05/19 01:33:52;;;;;;;3.65;1.27;;;;;;;4.51;70.88;101057.20;1676869;82;20979;-62
2023/05/19 01:36:21;;;;;;;5.08;1.30;;;;;;;4.53;70.93;101056.75;1694686;82;21518;-61
2023/05/19 01:38:53;;;;;;;5.37;1.60;;;;;;;4.54;70.90;101063.66;1698373;82;21391;-61
2023/05/19 01:41:21;;;;;;;1.95;1.20;;;;;;;4.55;70.84;101061.50;1696021;82;21087;-62
2023/05/19 01:43:48;;;;;;;4.08;1.30;;;;;;;4.55;70.75;101055.03;1696240;82;21040;-62
2023/05/19 01:46:16;;;;;;;5.00;1.60;;;;;;;4.53;70.84;101061.92;1697062;82;21430;-62
2023/05/19 01:48:44;;;;;;;3.33;1.10;;;;;;;4.49;70.72;101064.95;1700043;81;21020;-62
2023/05/19 01:51:11;;;;;;;2.77;1.02;;;;;;;4.47;70.94;101064.52;1698274;81;21053;-62
2023/05/19 01:53:40;;;;;;;2.30;1.10;;;;;;;4.46;71.11;101062.80;1700071;82;21058;-62
2023/05/19 01:56:07;;;;;;;2.50;1.40;;;;;;;4.48;71.27;101063.64;1680368;82;21123;-61
2023/05/19 01:58:45;;;;;;;2.15;1.25;;;;;;;4.47;71.12;101061.93;1703456;81;22259;-62
2023/05/19 02:01:15;;;;;;;2.02;1.30;;;;;;;4.45;71.11;101054.59;1607423;87;21055;-62
2023/05/19 02:04:04;;;;;;;3.22;1.80;;;;;;;4.43;71.23;101058.94;1612234;87;21118;-63
2023/05/19 02:06:45;;;;;;;2.58;1.25;;;;;;;4.37;71.15;101061.50;1614923;86;21069;-62
2023/05/19 02:09:14;;;;;;;2.95;1.77;;;;;;;4.31;71.29;101065.38;1614902;87;20967;-62
2023/05/19 02:11:46;;;;;;;3.75;1.12;;;;;;;4.28;71.48;101065.39;1616090;87;21029;-63
2023/05/19 02:14:16;;;;;;;2.47;1.52;;;;;;;4.24;71.60;101060.22;1614989;87;21499;-61
2023/05/19 02:16:48;;;;;;;4.67;1.60;;;;;;;4.21;71.58;101061.52;1613840;87;20982;-61
2023/05/19 02:19:30;;;;;;;2.12;1.20;;;;;;;4.21;71.78;101060.22;1629682;86;20991;-61
2023/05/19 02:21:57;;;;;;;3.05;1.35;;;;;;;4.20;71.83;101059.80;1633004;86;21129;-62
2023/05/19 02:24:23;;;;;;;2.40;1.30;;;;;;;4.21;71.96;101052.47;1632005;86;21065;-62
2023/05/19 02:26:52;;;;;;;2.30;1.40;;;;;;;4.20;71.81;101047.28;1636056;86;21002;-62
2023/05/19 02:29:19;;;;;;;2.70;1.47;;;;;;;4.16;71.69;101051.59;1634245;85;20998;-63
2023/05/19 02:31:46;;;;;;;2.83;1.20;;;;;;;4.07;71.54;101054.19;1632710;86;21159;-63
2023/05/19 02:34:13;;;;;;;1.50;1.05;;;;;;;3.97;71.61;101055.03;1638525;86;21050;-63
2023/05/19 02:36:44;;;;;;;1.92;1.40;;;;;;;3.94;71.76;101057.61;1634246;86;21030;-61
2023/05/19 02:39:11;;;;;;;2.55;1.35;;;;;;;3.89;71.79;101049.84;1712468;81;20985;-63
2023/05/19 02:41:39;;;;;;;2.30;1.32;;;;;;;3.85;71.92;101048.56;1701048;81;21974;-63
2023/05/19 02:44:06;;;;;;;4.28;1.70;;;;;;;3.80;71.97;101044.23;1731294;81;21771;-62
2023/05/19 02:46:33;;;;;;;2.83;1.42;;;;;;;3.74;71.90;101047.25;1732802;80;21052;-61
2023/05/19 02:48:59;;;;;;;2.02;1.20;;;;;;;3.66;71.98;101047.22;1732015;81;20985;-61
2023/05/19 02:51:26;;;;;;;4.40;1.52;;;;;;;3.62;72.08;101048.09;1732025;81;21077;-62
2023/05/19 02:53:52;;;;;;;2.10;1.20;;;;;;;3.59;72.21;101044.21;1730015;81;21086;-62
2023/05/19 02:56:22;;;;;;;3.90;1.40;;;;;;;3.54;72.23;101049.78;1730525;80;21043;-61
2023/05/19 02:58:51;;;;;;;2.00;1.37;;;;;;;3.54;72.41;101044.63;1727494;80;21013;-62
2023/05/19 03:01:23;;;;;;;2.05;1.20;;;;;;;3.56;72.59;101048.08;1732508;80;21009;-61
2023/05/19 03:03:49;;;;;;;4.62;1.60;;;;;;;3.62;72.70;101045.51;1725507;81;21064;-62
2023/05/19 03:06:17;;;;;;;2.08;1.00;;;;;;;3.68;72.87;101045.52;1730736;81;20934;-63
2023/05/19 03:08:44;;;;;;;5.37;2.05;;;;;;;3.78;72.94;101049.85;1733453;81;20979;-61
2023/05/19 03:11:10;;;;;;;3.12;1.15;;;;;;;3.91;73.00;101048.56;1729549;81;21025;-62
2023/05/19 03:13:38;;;;;;;6.62;1.42;;;;;;;4.00;72.92;101039.52;1703847;81;21500;-61
2023/05/19 03:16:06;;;;;;;4.37;1.27;;;;;;;4.06;72.80;101045.98;1728735;81;21015;-62
2023/05/19 03:18:33;;;;;;;2.92;0.95;;;;;;;4.10;72.92;101047.72;1714009;81;21035;-62
2023/05/19 03:21:00;;;;;;;2.15;1.15;;;;;;;4.18;72.90;101049.02;1687961;83;20977;-61
2023/05/19 03:23:27;;;;;;;3.72;1.30;;;;;;;4.22;72.83;101046.42;1686159;83;21005;-62
2023/05/19 03:25:54;;;;;;;4.87;1.35;;;;;;;4.28;72.96;101048.14;1683727;83;21451;-62
2023/05/19 03:28:26;;;;;;;3.80;1.25;;;;;;;4.37;73.05;101048.56;1685387;83;21010;-63
2023/05/19 03:30:52;;;;;;;5.12;1.60;;;;;;;4.47;73.17;101046.41;1689924;83;21026;-62
2023/05/19 03:33:19;;;;;;;4.35;1.40;;;;;;;4.57;73.30;101039.52;1685740;83;20971;-61
2023/05/19 03:35:45;;;;;;;3.15;1.50;;;;;;;4.67;73.25;101039.47;1686547;83;21481;-62
2023/05/19 03:38:11;;;;;;;2.40;1.30;;;;;;;4.81;73.37;101042.47;1686260;83;21073;-62
2023/05/19 03:40:37;;;;;;;5.15;1.50;;;;;;;4.90;73.38;101044.62;1686029;83;20994;-63
2023/05/19 03:43:04;;;;;;;3.70;1.50;;;;;;;5.05;73.56;101040.26;1685884;83;21011;-62
2023/05/19 03:45:31;;;;;;;2.58;1.22;;;;;;;5.16;73.49;101048.41;1685238;83;21450;-62
2023/05/19 03:47:57;;;;;;;3.00;1.32;;;;;;;5.26;73.45;101047.92;1689537;83;21030;-63
2023/05/19 03:50:23;;;;;;;2.60;1.25;;;;;;;5.36;73.63;101046.16;1684994;83;21015;-62
2023/05/19 03:52:49;;;;;;;2.35;1.42;;;;;;;5.53;74.02;101051.26;1684234;83;21019;-62
2023/05/19 03:55:19;;;;;;;8.53;1.80;;;;;;;5.70;73.88;101046.84;1685047;83;21038;-62
2023/05/19 03:57:44;;;;;;;7.37;2.00;;;;;;;5.83;73.91;101042.45;1685107;83;21065;-63
2023/05/19 04:00:11;;;;;;;14.47;2.92;;;;;;;5.93;73.79;101048.01;1689108;83;21021;-62
2023/05/19 04:02:39;;;;;;;8.20;1.77;;;;;;;6.05;73.96;101045.79;1686984;83;21050;-62
2023/05/19 04:05:07;;;;;;;11.95;2.27;;;;;;;6.19;74.29;101037.88;1686116;83;21018;-62
2023/05/19 04:07:33;;;;;;;8.23;1.67;;;;;;;6.37;74.30;101049.84;1686356;83;21026;-63
2023/05/19 04:10:06;;;;;;;4.85;1.70;;;;;;;6.52;74.26;101048.84;1687108;83;21093;-63
2023/05/19 04:12:32;;;;;;;5.87;1.85;;;;;;;6.65;74.40;101046.55;1687720;83;20995;-62
2023/05/19 04:14:59;;;;;;;9.10;2.42;;;;;;;6.76;74.21;101047.30;1684520;83;20948;-62
2023/05/19 04:17:26;;;;;;;9.63;2.35;;;;;;;6.89;74.34;101046.30;1685574;83;21007;-62
2023/05/19 04:19:53;;;;;;;;;;;;;;;7.03;74.35;101045.27;1710040;82;20998;-62
2023/05/19 04:22:19;;;;;;;30.30;6.10;;;;;;;7.17;74.46;101044.69;1715693;82;20143;-63
2023/05/19 04:24:47;;;;;;;80.75;6.35;;;;;;;7.35;74.73;101048.34;1710936;82;21581;-62
2023/05/19 04:27:15;;;;;;;14.23;2.92;;;;;;;7.51;74.60;101046.86;1669230;84;20932;-62
2023/05/19 04:29:41;;;;;;;10.50;2.62;;;;;;;7.67;74.53;101043.14;1710284;82;21021;-63
2023/05/19 04:32:07;;;;;;;19.87;3.37;;;;;;;7.76;74.47;101047.37;1710983;82;20985;-62
2023/05/19 04:34:34;;;;;;;22.95;3.15;;;;;;;7.85;74.50;101048.53;1711840;82;21094;-63
2023/05/19 04:37:01;;;;;;;26.00;4.10;;;;;;;7.98;74.67;101055.69;1712605;82;21101;-62
2023/05/19 04:39:28;;;;;;;23.70;3.47;;;;;;;8.13;74.87;101048.96;1714037;82;21133;-62
2023/05/19 04:41:55;;;;;;;10.05;2.87;;;;;;;8.37;75.07;101048.13;1712992;82;21926;-63
2023/05/19 04:44:21;;;;;;;11.55;2.22;;;;;;;8.57;74.84;101048.70;1714139;82;20993;-63
2023/05/19 04:46:48;;;;;;;8.38;2.92;;;;;;;8.70;74.71;101042.36;1711110;82;21014;-62
2023/05/19 04:49:15;;;;;;;3.50;1.17;;;;;;;8.90;74.97;101051.55;1712227;82;21162;-62
2023/05/19 04:51:41;;;;;;;4.00;1.80;;;;;;;9.14;74.31;101045.86;1710624;82;21034;-62
2023/05/19 04:54:08;;;;;;;6.33;1.77;;;;;;;9.12;73.65;101054.59;1715011;82;21530;-62
2023/05/19 04:56:35;;;;;;;3.15;1.00;;;;;;;9.25;73.79;101050.00;1708669;82;20950;-62
2023/05/19 04:59:01;;;;;;;4.40;1.37;;;;;;;9.37;73.60;101049.73;1713443;82;20989;-62
2023/05/19 05:01:29;;;;;;;1.92;0.70;;;;;;;9.50;74.13;101051.20;1716324;82;21000;-62
2023/05/19 05:03:57;;;;;;;1.55;0.72;;;;;;;9.66;73.48;101054.30;1714663;82;21490;-62
2023/05/19 05:06:24;;;;;;;1.35;0.70;;;;;;;9.64;73.09;101054.36;1713094;82;21496;-62
2023/05/19 05:08:51;;;;;;;3.00;0.78;;;;;;;9.77;73.79;101064.51;1672653;84;21043;-63
2023/05/19 05:11:18;;;;;;;2.67;1.00;;;;;;;9.95;73.93;101054.97;1719500;82;21055;-62
2023/05/19 05:13:45;;;;;;;;;;;;;;;10.16;73.70;101051.42;1712385;82;20985;-62
2023/05/19 05:16:13;;;;;;;2.70;0.75;;;;;;;10.28;74.10;101053.78;1669861;84;20218;-62
2023/05/19 05:18:39;;;;;;;;;;;;;;;10.56;74.00;101059.59;1721059;82;21609;-63
2023/05/19 05:21:09;;;;;;;1.87;1.37;;;;;;;10.76;73.62;101056.03;1723090;80;20344;-64
2023/05/19 05:23:36;;;;;;;1.30;0.70;;;;;;;10.96;74.33;101056.34;1726652;81;20982;-64
2023/05/19 05:26:07;;;;;;;1.70;0.78;;;;;;;11.22;74.19;101053.44;1728659;81;21000;-62
2023/05/19 05:28:33;;;;;;;1.82;0.65;;;;;;;11.55;74.24;101057.28;1728081;81;20985;-62
2023/05/19 05:30:59;;;;;;;2.17;0.60;;;;;;;11.64;73.33;101056.99;1727214;81;21030;-63
2023/05/19 05:33:26;;;;;;;1.77;0.50;;;;;;;11.60;73.09;101059.31;1730863;81;21563;-62
2023/05/19 05:35:52;;;;;;;0.90;0.40;;;;;;;11.69;73.05;101057.72;1724169;80;21122;-62
2023/05/19 05:38:18;;;;;;;0.50;0.30;;;;;;;11.69;73.05;101057.72;1724530;80;20973;-63
2023/05/19 05:40:44;;;;;;;4.10;1.35;;;;;;;11.64;72.60;101056.99;1728968;80;21522;-61
2023/05/19 05:43:11;;;;;;;1.80;0.50;;;;;;;11.39;72.06;101050.33;1732937;80;21001;-61
2023/05/19 05:45:37;;;;;;;2.42;0.57;;;;;;;11.36;72.57;101063.50;1729339;80;21020;-61
2023/05/19 05:48:04;;;;;;;1.67;0.40;;;;;;;11.47;72.82;101060.12;1728056;80;21052;-60
2023/05/19 05:50:31;;;;;;;;;;;;;;;11.45;72.31;101058.44;1732831;81;21077;-64
2023/05/19 05:53:00;;;;;;;1.07;0.30;;;;;;;11.51;71.93;101059.56;1731929;80;20222;-62
2023/05/19 05:55:27;;;;;;;1.32;0.60;;;;;;;11.60;72.71;101060.63;1728316;80;21008;-64
2023/05/19 05:57:55;;;;;;;5.97;0.50;;;;;;;11.72;72.58;101060.23;1729932;80;21068;-61
2023/05/19 06:00:22;;;;;;;1.02;0.40;;;;;;;11.78;71.95;101060.04;1728987;81;20984;-61
2023/05/19 06:02:50;;;;;;;1.12;0.53;;;;;;;11.68;71.97;101066.48;1731818;81;20975;-63
2023/05/19 06:05:17;;;;;;;1.77;0.47;;;;;;;11.97;72.06;101063.44;1702373;82;21587;-62
2023/05/19 06:07:43;;;;;;;2.02;1.00;;;;;;;11.97;72.06;101063.44;1710185;82;21593;-62
2023/05/19 06:10:09;;;;;;;1.72;0.40;;;;;;;12.06;71.95;101067.06;1718297;82;21484;-62
2023/05/19 06:12:39;;;;;;;1.87;0.50;;;;;;;12.17;71.38;101062.34;1710084;82;21086;-63
2023/05/19 06:15:07;;;;;;;2.92;0.57;;;;;;;12.18;71.43;101065.80;1706972;82;20988;-61
2023/05/19 06:17:36;;;;;;;;;;;;;;;12.35;72.04;101062.63;1711842;81;20999;-63
2023/05/19 06:20:07;;;;;;;1.72;0.50;;;;;;;12.46;70.72;101064.02;1703872;82;20205;-62
2023/05/19 06:22:41;;;;;;;1.65;0.40;;;;;;;12.45;70.93;101060.12;1706888;82;20973;-61
2023/05/19 06:25:07;;;;;;;1.80;0.45;;;;;;;12.71;71.32;101061.38;1706883;82;21007;-62
2023/05/19 06:27:35;;;;;;;2.60;0.62;;;;;;;12.99;71.19;101065.65;1695665;82;21512;-63
2023/05/19 06:30:01;;;;;;;1.45;0.40;;;;;;;13.07;71.28;101066.23;1693946;83;21566;-63
2023/05/19 06:32:28;;;;;;;0.93;0.37;;;;;;;13.21;70.60;101066.58;1696729;82;21429;-65
2023/05/19 06:34:55;;;;;;;4.60;0.60;;;;;;;13.37;70.64;101060.81;1698650;82;21474;-65
2023/05/19 06:37:22;;;;;;;0.77;0.47;;;;;;;13.56;70.42;101057.89;1698122;83;21693;-63
2023/05/19 06:39:51;;;;;;;;;;;;;;;13.91;70.81;101063.52;1699784;83;20949;-62
2023/05/19 06:42:23;;;;;;;1.15;0.35;;;;;;;13.97;69.38;101056.71;1694520;83;20130;-63
2023/05/19 06:44:51;;;;;;;1.27;0.60;;;;;;;14.27;71.07;101061.64;1694648;83;21042;-62
2023/05/19 06:47:19;;;;;;;0.80;0.40;;;;;;;14.40;70.80;101061.54;1695250;83;20963;-63
2023/05/19 06:49:54;;;;;;;1.42;0.60;;;;;;;14.68;72.03;101063.03;1699383;83;21031;-61
2023/05/19 06:52:13;;;;;;;0.90;0.42;;;;;;;15.36;73.17;101055.16;1693801;83;21526;-64
2023/05/19 06:54:42;;;;;;;2.05;0.60;;;;;;;16.18;72.36;101045.57;1697756;83;21052;-67
2023/05/19 06:57:12;;;;;;;1.50;0.50;;;;;;;16.88;71.52;101043.79;1669887;83;21088;-63
2023/05/19 06:59:40;;;;;;;3.95;0.55;;;;;;;17.60;71.17;101043.86;1696658;83;21177;-62
2023/05/19 07:02:07;;;;;;;4.53;0.60;;;;;;;18.54;71.27;101042.02;1692977;82;20981;-62
2023/05/19 07:04:33;;;;;;;2.08;0.60;;;;;;;18.90;70.79;101046.05;1695970;83;21038;-63
2023/05/19 07:06:59;;;;;;;1.25;0.60;;;;;;;18.91;68.37;101042.47;1697582;84;21160;-66
2023/05/19 07:09:26;;;;;;;1.87;0.78;;;;;;;19.52;70.20;101036.92;1696952;83;21088;-63
2023/05/19 07:11:52;;;;;;;1.90;0.60;;;;;;;20.79;70.17;101034.69;1696980;82;21570;-64
2023/05/19 07:14:19;;;;;;;1.20;0.40;;;;;;;21.16;66.60;101042.72;1694095;83;21644;-64
2023/05/19 07:16:46;;;;;;;5.00;0.80;;;;;;;21.75;67.79;101037.23;1698101;82;21009;-64
2023/05/19 07:19:12;;;;;;;3.02;0.53;;;;;;;22.39;67.64;101041.77;1695389;82;20977;-65
2023/05/19 07:21:38;;;;;;;3.62;0.72;;;;;;;23.13;67.46;101026.27;1696171;83;21453;-64
2023/05/19 07:24:06;;;;;;;2.40;0.90;;;;;;;22.44;65.83;101038.28;1693946;83;21139;-64
2023/05/19 07:26:32;;;;;;;3.00;1.12;;;;;;;22.30;66.17;101042.48;1698739;82;21678;-64
2023/05/19 07:28:59;;;;;;;1.35;0.82;;;;;;;21.90;66.28;101044.07;1698599;82;23051;-63
2023/05/19 07:31:25;;;;;;;;;;;;;;;21.51;65.67;101042.06;1698230;83;21525;-63
2023/05/19 07:33:51;;;;;;;3.15;0.85;;;;;;;21.78;66.21;101043.66;1696732;82;20541;-64
2023/05/19 07:36:17;;;;;;;4.20;0.82;;;;;;;22.66;66.13;101035.28;1695415;82;20960;-64
2023/05/19 07:38:45;;;;;;;2.37;0.77;;;;;;;23.63;65.97;101035.17;1696628;82;20984;-64
2023/05/19 07:41:12;;;;;;;3.12;0.85;;;;;;;24.89;66.29;101024.16;1695445;82;21393;-63
2023/05/19 07:43:38;;;;;;;1.77;0.90;;;;;;;24.56;63.34;101022.56;1696679;83;21051;-64
2023/05/19 07:46:05;;;;;;;1.85;0.75;;;;;;;23.76;62.51;101029.23;1693967;83;21186;-64
2023/05/19 07:48:31;;;;;;;3.67;0.55;;;;;;;23.78;64.21;101027.30;1694451;82;21106;-64
2023/05/19 07:50:58;;;;;;;1.35;0.88;;;;;;;24.18;63.79;101026.64;1693380;82;21058;-64
2023/05/19 07:53:24;;;;;;;3.15;0.75;;;;;;;24.44;63.35;101018.28;1694483;83;21081;-64
2023/05/19 07:55:51;;;;;;;3.70;0.62;;;;;;;25.46;63.71;101015.19;1694597;82;21095;-64
2023/05/19 07:58:19;;;;;;;2.67;0.50;;;;;;;25.58;60.75;101014.07;1692193;83;21428;-64
2023/05/19 08:00:55;;;;;;;1.75;0.78;;;;;;;25.88;63.08;101016.33;1696066;83;21087;-64
2023/05/19 08:03:16;;;;;;;1.45;0.60;;;;;;;26.81;62.50;101020.16;1677622;83;21078;-64
2023/05/19 08:05:48;;;;;;;0.98;0.40;;;;;;;26.15;59.99;101017.44;1694881;83;21015;-64
2023/05/19 08:08:18;;;;;;;1.40;0.50;;;;;;;26.14;62.03;101026.46;1695842;83;20977;-64
2023/05/19 08:10:45;;;;;;;2.50;0.90;;;;;;;25.80;60.62;101022.34;1674764;84;21562;-64
2023/05/19 08:13:11;;;;;;;2.25;0.50;;;;;;;25.96;60.91;101013.77;1693800;82;21531;-64
2023/05/19 08:15:39;;;;;;;5.67;0.70;;;;;;;26.91;60.35;101010.22;1694823;83;21033;-64
2023/05/19 08:18:05;;;;;;;3.10;0.70;;;;;;;26.81;58.38;101016.14;1699341;82;20979;-64
2023/05/19 08:20:32;;;;;;;2.40;0.62;;;;;;;25.85;59.08;101016.58;1697794;82;21530;-64
2023/05/19 08:22:59;;;;;;;1.77;0.53;;;;;;;26.54;59.11;101015.57;1700806;82;21554;-64
2023/05/19 08:25:25;;;;;;;1.37;0.40;;;;;;;26.39;56.46;101017.83;1698092;82;21637;-63
2023/05/19 08:27:52;;;;;;;1.02;0.33;;;;;;;25.92;58.03;101013.70;1697500;82;21605;-64
2023/05/19 08:30:19;;;;;;;2.77;0.55;;;;;;;26.15;57.06;101010.74;1701361;82;21744;-63
2023/05/19 08:32:45;;;;;;;1.10;0.50;;;;;;;25.43;55.38;101006.08;1695722;82;21136;-64
2023/05/19 08:35:15;;;;;;;5.95;0.70;;;;;;;24.43;56.30;101005.89;1696924;82;21085;-64
2023/05/19 08:37:47;;;;;;;1.22;0.33;;;;;;;24.62;57.00;101018.52;1694983;82;21523;-64
2023/05/19 08:40:22;;;;;;;1.15;0.57;;;;;;;24.30;55.63;101013.59;1695636;82;21803;-64
2023/05/19 08:42:48;;;;;;;1.62;0.68;;;;;;;23.53;53.66;101026.25;1697029;82;21172;-64
2023/05/19 08:45:15;;;;;;;1.42;0.53;;;;;;;23.03;55.23;101024.48;1693753;82;21035;-63
2023/05/19 08:47:46;;;;;;;3.52;1.15;;;;;;;22.70;54.71;101016.80;1695923;82;21063;-64
2023/05/19 08:50:16;;;;;;;2.15;0.62;;;;;;;22.11;53.91;101014.55;1694683;81;21022;-63
2023/05/19 08:52:56;;;;;;;1.12;0.35;;;;;;;22.09;54.53;101016.47;1696762;82;21016;-64
2023/05/19 08:55:44;;;;;;;5.83;1.05;;;;;;;21.93;54.06;101015.95;1695158;82;21099;-64
2023/05/19 08:58:15;;;;;;;1.50;0.50;;;;;;;21.21;54.18;101015.85;1695431;82;21045;-65
2023/05/19 09:00:43;;;;;;;0.95;0.50;;;;;;;20.98;54.78;101014.83;1695454;82;21054;-69
2023/05/19 09:03:09;;;;;;;1.85;0.50;;;;;;;20.59;53.93;101006.03;1694430;83;20971;-65
2023/05/19 09:05:42;;;;;;;;;;;;;;;20.34;54.40;101014.30;1700684;81;21013;-64
2023/05/19 09:08:06;;;;;;;1.15;0.57;;;;;;;19.40;52.88;101006.30;1696377;82;20224;-64
2023/05/19 09:10:34;;;;;;;2.10;0.90;;;;;;;18.56;53.73;101007.52;1692639;81;21664;-64
2023/05/19 09:13:05;;;;;;;0.78;0.42;;;;;;;18.38;53.75;101012.13;1695680;82;21017;-64
2023/05/19 09:15:35;;;;;;;1.45;0.62;;;;;;;18.45;54.68;101016.09;1693488;83;21018;-63
2023/05/19 09:18:12;;;;;;;2.10;0.60;;;;;;;18.62;54.00;101010.27;1692199;82;20994;-64
2023/05/19 09:20:40;;;;;;;1.75;0.80;;;;;;;18.28;53.57;101010.97;1690996;82;21070;-64
2023/05/19 09:23:09;;;;;;;5.00;0.50;;;;;;;17.56;54.00;101018.58;1688919;83;21078;-64
2023/05/19 09:25:35;;;;;;;1.42;0.50;;;;;;;17.27;54.20;101024.59;1689867;83;21064;-64
2023/05/19 09:28:01;;;;;;;1.37;0.60;;;;;;;17.20;54.53;101019.66;1685615;83;21046;-64
2023/05/19 09:30:28;;;;;;;1.17;0.53;;;;;;;17.15;54.93;101019.05;1684268;84;21026;-64
2023/05/19 09:35:48;;;;;;;;;;;;;;;;;;;;;
2023/05/19 09:38:07;;;;;;;1.57;0.60;;;;;;;17.73;55.66;101006.19;1683478;82;21554;-65
2023/05/19 09:40:33;;;;;;;1.25;0.65;;;;;;;18.82;56.47;101011.29;1687634;83;21706;-64
2023/05/19 09:43:01;;;;;;;3.43;0.60;;;;;;;19.13;55.08;101014.20;1686992;84;21025;-64
2023/05/19 09:45:28;;;;;;;0.78;0.45;;;;;;;19.18;54.94;101017.39;1682723;83;21631;-65
2023/05/19 09:47:54;;;;;;;1.10;0.70;;;;;;;18.77;54.78;101018.66;1681208;83;20990;-66
2023/05/19 09:50:22;;;;;;;3.47;0.80;;;;;;;18.62;55.08;101018.20;1687161;83;21034;-63
2023/05/19 09:52:49;;;;;;;2.30;0.85;;;;;;;18.53;55.15;101019.14;1684467;83;21006;-66
2023/05/19 09:55:15;;;;;;;;;;;;;;;18.58;54.87;101024.16;1689081;83;20995;-65
2023/05/19 09:57:44;;;;;;;2.08;0.70;;;;;;;18.66;54.88;101018.42;1680421;83;20183;-63
2023/05/19 10:00:15;;;;;;;2.00;0.85;;;;;;;18.56;54.53;101029.53;1687378;83;21061;-64
2023/05/19 10:02:44;;;;;;;4.15;1.07;;;;;;;18.26;54.60;101024.73;1680588;83;21332;-64
2023/05/19 10:05:18;;;;;;;2.45;0.80;;;;;;;17.74;55.19;101010.55;1684656;83;20959;-64
2023/05/19 10:07:51;;;;;;;3.52;1.00;;;;;;;17.55;55.65;101022.13;1680334;83;21054;-64
2023/05/19 10:10:20;;;;;;;3.30;0.90;;;;;;;17.38;55.58;101009.02;1632333;86;21023;-63
2023/05/19 10:12:48;;;;;;;7.37;1.00;;;;;;;17.25;55.53;101013.27;1683465;83;21037;-63
2023/05/19 10:15:20;;;;;;;4.15;1.30;;;;;;;17.01;55.56;101011.03;1659985;83;21077;-64
2023/05/19 10:17:46;;;;;;;4.10;0.72;;;;;;;17.01;56.18;101005.75;1685696;83;21038;-65
2023/05/19 10:20:15;;;;;;;2.40;0.78;;;;;;;16.88;55.72;101007.33;1693081;81;21109;-65
2023/05/19 10:22:58;;;;;;;2.92;0.80;;;;;;;16.74;56.54;101008.88;1714105;82;21482;-65
2023/05/19 10:25:18;;;;;;;0.95;0.40;;;;;;;16.74;55.99;101011.51;1707714;82;21124;-65
2023/05/19 10:27:53;;;;;;;2.98;0.93;;;;;;;16.64;56.46;101006.34;1674585;84;21553;-65
2023/05/19 10:30:33;;;;;;;1.60;0.80;;;;;;;16.33;56.46;101003.13;1712363;81;21123;-65
2023/05/19 10:33:22;;;;;;;2.02;0.85;;;;;;;16.04;56.55;101009.84;1687889;82;22478;-65
2023/05/19 10:36:11;;;;;;;1.52;0.70;;;;;;;15.89;56.56;101014.94;1707934;82;21042;-65
2023/05/19 10:39:05;;;;;;;5.70;0.90;;;;;;;15.79;56.99;101016.30;1703669;82;21168;-65
2023/05/19 10:41:45;;;;;;;2.60;0.85;;;;;;;15.68;57.03;101021.23;1709550;82;21619;-65
2023/05/19 10:44:23;;;;;;;1.27;0.90;;;;;;;15.88;57.21;101021.14;1707373;82;21046;-65
2023/05/19 10:46:54;;;;;;;2.87;1.15;;;;;;;15.95;57.29;101022.16;1711166;81;21017;-65
2023/05/19 10:49:23;;;;;;;4.12;1.00;;;;;;;15.91;57.72;101011.36;1709497;82;20982;-65
2023/05/19 10:51:51;;;;;;;2.30;1.20;;;;;;;15.76;57.38;101016.45;1705014;82;20991;-65
2023/05/19 10:54:53;;;;;;;3.10;1.00;;;;;;;15.55;57.50;101017.00;1688041;82;21102;-64
2023/05/19 10:57:15;;;;;;;3.10;1.20;;;;;;;15.59;57.56;101024.28;1706996;81;21017;-65
2023/05/19 10:59:56;;;;;;;;;;;;;;;;;;;;;
2023/05/19 11:02:56;;;;;;;;;;;;;;;;;;;;;
2023/05/19 11:05:28;;;;;;;;;;;;;;;;;;;;;
2023/05/19 11:08:00;;;;;;;2.33;0.93;;;;;;;16.31;57.72;101003.19;1653665;84;22106;-65
2023/05/19 11:10:50;;;;;;;2.98;1.00;;;;;;;16.30;57.63;101004.13;1841641;76;22186;-64
2023/05/19 11:13:21;;;;;;;10.88;1.20;;;;;;;16.06;57.82;101005.35;1803115;78;21086;-64
2023/05/19 11:15:48;;;;;;;3.47;0.90;;;;;;;16.00;57.86;101008.30;1807912;78;21001;-64
2023/05/19 11:18:14;;;;;;;;;;;;;;;15.83;58.00;101004.70;1817774;78;21077;-64
2023/05/19 11:20:43;;;;;;;1.10;0.70;;;;;;;15.80;58.08;101004.01;1779253;77;20521;-64
2023/05/19 11:23:20;;;;;;;4.03;0.90;;;;;;;16.02;58.42;101004.66;1813427;77;21029;-63
2023/05/19 11:25:50;;;;;;;4.00;1.25;;;;;;;15.87;58.04;101000.98;1808352;78;21607;-64
2023/05/19 11:28:18;;;;;;;2.47;1.02;;;;;;;15.54;58.07;100999.94;1764498;80;21026;-64
2023/05/19 11:30:48;;;;;;;3.12;1.10;;;;;;;15.57;58.71;101002.42;1731273;80;21478;-64
2023/05/19 11:33:19;;;;;;;2.87;1.10;;;;;;;15.69;58.61;100999.26;1746825;81;21053;-66
2023/05/19 11:35:51;;;;;;;2.50;1.07;;;;;;;15.83;58.78;100998.59;1740902;81;21018;-64
2023/05/19 11:38:19;;;;;;;3.52;1.20;;;;;;;16.00;58.80;101005.20;1747890;81;21018;-65
2023/05/19 11:40:48;;;;;;;3.15;1.00;;;;;;;16.05;58.19;101008.92;1749414;81;21060;-63
2023/05/19 11:43:16;;;;;;;2.27;0.90;;;;;;;15.89;58.19;100999.13;1724804;81;21081;-63
2023/05/19 11:45:50;;;;;;;1.98;0.90;;;;;;;15.71;58.47;101007.95;1746599;81;21058;-62
2023/05/19 11:48:17;;;;;;;2.87;1.00;;;;;;;15.66;59.20;101011.22;1738408;81;21053;-62